sensor_id;sensor_type;location;lat;lon;timestamp;P1;durP1;ratioP1;P2;durP2;ratioP2
15406;SDS011;7802;51.568;6.364;2022-11-20T00:02:33;11.93;;;9.17;;
15406;SDS011;7802;51.568;6.364;2022-11-20T00:05:20;12.53;;;8.83;;
15406;SDS011;7802;51.568;6.364;2022-11-20T00:08:07;10.67;;;8.93;;
15406;SDS011;7802;51.568;6.364;2022-11-20T00:10:53;11.70;;;8.90;;
15406;SDS011;7802;51.568;6.364;2022-11-20T00:13:41;10.20;;;8.50;;
15406;SDS011;7802;51.568;6.364;2022-11-20T00:16:29;11.37;;;9.60;;
15406;SDS011;7802;51.568;6.364;2022-11-20T00:19:17;13.27;;;9.50;;
15406;SDS011;7802;51.568;6.364;2022-11-20T00:22:05;12.50;;;10.27;;
15406;SDS011;7802;51.568;6.364;2022-11-20T00:24:52;13.90;;;10.07;;
15406;SDS011;7802;51.568;6.364;2022-11-20T00:27:38;11.70;;;9.23;;
15406;SDS011;7802;51.568;6.364;2022-11-20T00:30:26;12.60;;;9.17;;
15406;SDS011;7802;51.568;6.364;2022-11-20T00:33:13;12.73;;;10.10;;
15406;SDS011;7802;51.568;6.364;2022-11-20T00:36:00;12.20;;;9.37;;
15406;SDS011;7802;51.568;6.364;2022-11-20T00:38:50;11.40;;;9.17;;
15406;SDS011;7802;51.568;6.364;2022-11-20T00:41:38;13.57;;;9.30;;
15406;SDS011;7802;51.568;6.364;2022-11-20T00:44:25;13.70;;;9.73;;
15406;SDS011;7802;51.568;6.364;2022-11-20T00:47:12;10.40;;;8.30;;
15406;SDS011;7802;51.568;6.364;2022-11-20T00:49:59;11.80;;;9.07;;
15406;SDS011;7802;51.568;6.364;2022-11-20T00:52:46;12.53;;;9.20;;
15406;SDS011;7802;51.568;6.364;2022-11-20T00:55:33;10.57;;;9.13;;
15406;SDS011;7802;51.568;6.364;2022-11-20T00:58:20;12.67;;;9.60;;
15406;SDS011;7802;51.568;6.364;2022-11-20T01:01:09;16.90;;;11.43;;
15406;SDS011;7802;51.568;6.364;2022-11-20T01:03:58;21.27;;;12.93;;
15406;SDS011;7802;51.568;6.364;2022-11-20T01:06:46;25.70;;;15.10;;
15406;SDS011;7802;51.568;6.364;2022-11-20T01:09:32;21.40;;;12.77;;
15406;SDS011;7802;51.568;6.364;2022-11-20T01:12:20;16.83;;;11.23;;
15406;SDS011;7802;51.568;6.364;2022-11-20T01:15:07;13.93;;;10.83;;
15406;SDS011;7802;51.568;6.364;2022-11-20T01:17:54;12.97;;;9.43;;
15406;SDS011;7802;51.568;6.364;2022-11-20T01:20:42;13.43;;;10.10;;
15406;SDS011;7802;51.568;6.364;2022-11-20T01:23:32;11.60;;;9.13;;
15406;SDS011;7802;51.568;6.364;2022-11-20T01:26:20;12.87;;;9.67;;
15406;SDS011;7802;51.568;6.364;2022-11-20T01:29:09;11.23;;;9.57;;
15406;SDS011;7802;51.568;6.364;2022-11-20T01:32:00;11.27;;;9.63;;
15406;SDS011;7802;51.568;6.364;2022-11-20T01:34:47;13.23;;;9.93;;
15406;SDS011;7802;51.568;6.364;2022-11-20T01:37:34;11.60;;;9.60;;
15406;SDS011;7802;51.568;6.364;2022-11-20T01:40:21;12.77;;;10.30;;
15406;SDS011;7802;51.568;6.364;2022-11-20T01:43:11;12.27;;;9.90;;
15406;SDS011;7802;51.568;6.364;2022-11-20T01:46:12;12.87;;;9.10;;
15406;SDS011;7802;51.568;6.364;2022-11-20T01:49:02;11.60;;;9.73;;
15406;SDS011;7802;51.568;6.364;2022-11-20T01:51:50;14.93;;;10.00;;
15406;SDS011;7802;51.568;6.364;2022-11-20T01:54:44;13.47;;;10.00;;
15406;SDS011;7802;51.568;6.364;2022-11-20T01:57:35;14.53;;;10.70;;
15406;SDS011;7802;51.568;6.364;2022-11-20T02:00:23;12.00;;;9.47;;
15406;SDS011;7802;51.568;6.364;2022-11-20T02:03:11;12.80;;;9.33;;
15406;SDS011;7802;51.568;6.364;2022-11-20T02:06:03;13.23;;;9.63;;
15406;SDS011;7802;51.568;6.364;2022-11-20T02:08:55;12.67;;;10.00;;
15406;SDS011;7802;51.568;6.364;2022-11-20T02:11:43;12.57;;;9.73;;
15406;SDS011;7802;51.568;6.364;2022-11-20T02:14:30;10.90;;;9.30;;
15406;SDS011;7802;51.568;6.364;2022-11-20T02:17:17;13.77;;;10.03;;
15406;SDS011;7802;51.568;6.364;2022-11-20T02:20:04;12.97;;;9.77;;
15406;SDS011;7802;51.568;6.364;2022-11-20T02:22:53;11.07;;;9.57;;
15406;SDS011;7802;51.568;6.364;2022-11-20T02:25:44;12.07;;;10.10;;
15406;SDS011;7802;51.568;6.364;2022-11-20T02:28:33;12.20;;;9.57;;
15406;SDS011;7802;51.568;6.364;2022-11-20T02:31:20;12.20;;;9.67;;
15406;SDS011;7802;51.568;6.364;2022-11-20T02:34:06;12.93;;;9.70;;
15406;SDS011;7802;51.568;6.364;2022-11-20T02:36:53;13.23;;;9.20;;
15406;SDS011;7802;51.568;6.364;2022-11-20T02:39:41;12.70;;;10.37;;
15406;SDS011;7802;51.568;6.364;2022-11-20T02:42:31;12.40;;;9.30;;
15406;SDS011;7802;51.568;6.364;2022-11-20T02:45:18;12.53;;;10.10;;
15406;SDS011;7802;51.568;6.364;2022-11-20T02:48:05;13.17;;;10.07;;
15406;SDS011;7802;51.568;6.364;2022-11-20T02:50:52;12.27;;;9.47;;
15406;SDS011;7802;51.568;6.364;2022-11-20T02:53:39;12.90;;;9.90;;
15406;SDS011;7802;51.568;6.364;2022-11-20T02:56:26;12.90;;;9.43;;
15406;SDS011;7802;51.568;6.364;2022-11-20T02:59:14;13.03;;;9.60;;
15406;SDS011;7802;51.568;6.364;2022-11-20T03:02:01;13.13;;;9.63;;
15406;SDS011;7802;51.568;6.364;2022-11-20T03:04:48;12.70;;;9.40;;
15406;SDS011;7802;51.568;6.364;2022-11-20T03:07:35;11.60;;;9.70;;
15406;SDS011;7802;51.568;6.364;2022-11-20T03:10:22;12.27;;;9.53;;
15406;SDS011;7802;51.568;6.364;2022-11-20T03:13:09;13.97;;;11.10;;
15406;SDS011;7802;51.568;6.364;2022-11-20T03:15:56;12.40;;;9.90;;
15406;SDS011;7802;51.568;6.364;2022-11-20T03:18:43;12.90;;;10.13;;
15406;SDS011;7802;51.568;6.364;2022-11-20T03:21:30;13.20;;;10.23;;
15406;SDS011;7802;51.568;6.364;2022-11-20T03:24:18;12.60;;;9.80;;
15406;SDS011;7802;51.568;6.364;2022-11-20T03:27:05;12.53;;;9.73;;
15406;SDS011;7802;51.568;6.364;2022-11-20T03:29:52;13.57;;;9.60;;
15406;SDS011;7802;51.568;6.364;2022-11-20T03:32:39;12.30;;;9.90;;
15406;SDS011;7802;51.568;6.364;2022-11-20T03:35:26;11.70;;;9.70;;
15406;SDS011;7802;51.568;6.364;2022-11-20T03:38:13;12.10;;;10.00;;
15406;SDS011;7802;51.568;6.364;2022-11-20T03:41:01;12.10;;;9.57;;
15406;SDS011;7802;51.568;6.364;2022-11-20T03:43:49;12.70;;;10.70;;
15406;SDS011;7802;51.568;6.364;2022-11-20T03:46:36;11.47;;;9.40;;
15406;SDS011;7802;51.568;6.364;2022-11-20T03:49:24;13.27;;;9.83;;
15406;SDS011;7802;51.568;6.364;2022-11-20T03:52:11;13.07;;;9.97;;
15406;SDS011;7802;51.568;6.364;2022-11-20T03:54:58;12.63;;;10.30;;
15406;SDS011;7802;51.568;6.364;2022-11-20T03:57:45;13.67;;;10.30;;
15406;SDS011;7802;51.568;6.364;2022-11-20T04:00:31;11.17;;;9.27;;
15406;SDS011;7802;51.568;6.364;2022-11-20T04:03:18;13.03;;;10.67;;
15406;SDS011;7802;51.568;6.364;2022-11-20T04:06:07;17.07;;;10.30;;
15406;SDS011;7802;51.568;6.364;2022-11-20T04:08:56;13.70;;;11.07;;
15406;SDS011;7802;51.568;6.364;2022-11-20T04:11:44;14.17;;;11.23;;
15406;SDS011;7802;51.568;6.364;2022-11-20T04:14:31;15.00;;;11.27;;
15406;SDS011;7802;51.568;6.364;2022-11-20T04:17:17;13.97;;;11.57;;
15406;SDS011;7802;51.568;6.364;2022-11-20T04:20:05;14.37;;;11.40;;
15406;SDS011;7802;51.568;6.364;2022-11-20T04:22:53;11.50;;;9.80;;
15406;SDS011;7802;51.568;6.364;2022-11-20T04:25:40;14.80;;;10.83;;
15406;SDS011;7802;51.568;6.364;2022-11-20T04:28:27;12.97;;;10.00;;
15406;SDS011;7802;51.568;6.364;2022-11-20T04:31:15;14.27;;;10.50;;
15406;SDS011;7802;51.568;6.364;2022-11-20T04:34:04;13.77;;;10.63;;
15406;SDS011;7802;51.568;6.364;2022-11-20T04:36:52;13.37;;;10.37;;
15406;SDS011;7802;51.568;6.364;2022-11-20T04:39:39;18.00;;;13.17;;
15406;SDS011;7802;51.568;6.364;2022-11-20T04:42:26;18.80;;;14.60;;
15406;SDS011;7802;51.568;6.364;2022-11-20T04:45:16;20.37;;;14.53;;
15406;SDS011;7802;51.568;6.364;2022-11-20T04:48:03;20.20;;;16.30;;
15406;SDS011;7802;51.568;6.364;2022-11-20T04:50:51;20.07;;;15.77;;
15406;SDS011;7802;51.568;6.364;2022-11-20T04:53:38;21.67;;;16.10;;
15406;SDS011;7802;51.568;6.364;2022-11-20T04:56:26;19.87;;;15.03;;
15406;SDS011;7802;51.568;6.364;2022-11-20T04:59:13;18.67;;;13.60;;
15406;SDS011;7802;51.568;6.364;2022-11-20T05:02:00;18.47;;;14.80;;
15406;SDS011;7802;51.568;6.364;2022-11-20T05:04:47;18.97;;;14.20;;
15406;SDS011;7802;51.568;6.364;2022-11-20T05:07:34;18.83;;;14.47;;
15406;SDS011;7802;51.568;6.364;2022-11-20T05:10:20;17.83;;;13.90;;
15406;SDS011;7802;51.568;6.364;2022-11-20T05:13:08;16.50;;;12.53;;
15406;SDS011;7802;51.568;6.364;2022-11-20T05:15:55;14.60;;;12.77;;
15406;SDS011;7802;51.568;6.364;2022-11-20T05:18:42;16.70;;;12.73;;
15406;SDS011;7802;51.568;6.364;2022-11-20T05:21:30;18.23;;;14.43;;
15406;SDS011;7802;51.568;6.364;2022-11-20T05:24:17;17.97;;;13.70;;
15406;SDS011;7802;51.568;6.364;2022-11-20T05:27:04;19.27;;;13.83;;
15406;SDS011;7802;51.568;6.364;2022-11-20T05:29:51;18.83;;;14.70;;
15406;SDS011;7802;51.568;6.364;2022-11-20T05:32:38;16.90;;;13.33;;
15406;SDS011;7802;51.568;6.364;2022-11-20T05:35:25;17.43;;;13.73;;
15406;SDS011;7802;51.568;6.364;2022-11-20T05:38:12;18.77;;;13.57;;
15406;SDS011;7802;51.568;6.364;2022-11-20T05:41:02;17.10;;;12.97;;
15406;SDS011;7802;51.568;6.364;2022-11-20T05:43:50;18.77;;;12.87;;
15406;SDS011;7802;51.568;6.364;2022-11-20T05:46:38;18.07;;;13.43;;
15406;SDS011;7802;51.568;6.364;2022-11-20T05:49:25;16.70;;;13.57;;
15406;SDS011;7802;51.568;6.364;2022-11-20T05:52:12;14.93;;;11.77;;
15406;SDS011;7802;51.568;6.364;2022-11-20T05:55:01;16.17;;;13.00;;
15406;SDS011;7802;51.568;6.364;2022-11-20T05:57:49;18.67;;;13.43;;
15406;SDS011;7802;51.568;6.364;2022-11-20T06:00:36;15.17;;;12.30;;
15406;SDS011;7802;51.568;6.364;2022-11-20T06:03:24;17.10;;;12.80;;
15406;SDS011;7802;51.568;6.364;2022-11-20T06:06:11;17.60;;;13.83;;
15406;SDS011;7802;51.568;6.364;2022-11-20T06:08:59;14.07;;;11.70;;
15406;SDS011;7802;51.568;6.364;2022-11-20T06:11:46;14.13;;;11.80;;
15406;SDS011;7802;51.568;6.364;2022-11-20T06:14:33;16.10;;;12.17;;
15406;SDS011;7802;51.568;6.364;2022-11-20T06:17:20;16.70;;;12.80;;
15406;SDS011;7802;51.568;6.364;2022-11-20T06:20:08;16.30;;;12.67;;
15406;SDS011;7802;51.568;6.364;2022-11-20T06:22:56;14.63;;;12.43;;
15406;SDS011;7802;51.568;6.364;2022-11-20T06:25:42;15.87;;;12.47;;
15406;SDS011;7802;51.568;6.364;2022-11-20T06:28:30;16.63;;;12.67;;
15406;SDS011;7802;51.568;6.364;2022-11-20T06:31:18;16.37;;;12.73;;
15406;SDS011;7802;51.568;6.364;2022-11-20T06:34:06;16.53;;;12.70;;
15406;SDS011;7802;51.568;6.364;2022-11-20T06:36:53;15.40;;;11.63;;
15406;SDS011;7802;51.568;6.364;2022-11-20T06:39:40;18.63;;;12.77;;
15406;SDS011;7802;51.568;6.364;2022-11-20T06:42:27;16.03;;;12.70;;
15406;SDS011;7802;51.568;6.364;2022-11-20T06:45:14;16.13;;;12.70;;
15406;SDS011;7802;51.568;6.364;2022-11-20T06:48:01;15.00;;;12.07;;
15406;SDS011;7802;51.568;6.364;2022-11-20T06:50:48;17.07;;;12.60;;
15406;SDS011;7802;51.568;6.364;2022-11-20T06:53:36;17.23;;;13.47;;
15406;SDS011;7802;51.568;6.364;2022-11-20T06:56:23;18.33;;;12.90;;
15406;SDS011;7802;51.568;6.364;2022-11-20T07:02:50;17.13;;;12.93;;
15406;SDS011;7802;51.568;6.364;2022-11-20T07:05:37;17.93;;;13.40;;
15406;SDS011;7802;51.568;6.364;2022-11-20T07:08:24;18.13;;;14.47;;
15406;SDS011;7802;51.568;6.364;2022-11-20T07:11:12;17.23;;;12.83;;
15406;SDS011;7802;51.568;6.364;2022-11-20T07:13:59;15.43;;;12.77;;
15406;SDS011;7802;51.568;6.364;2022-11-20T07:16:46;16.80;;;12.60;;
15406;SDS011;7802;51.568;6.364;2022-11-20T07:19:33;16.60;;;12.13;;
15406;SDS011;7802;51.568;6.364;2022-11-20T07:22:20;14.73;;;12.10;;
15406;SDS011;7802;51.568;6.364;2022-11-20T07:25:08;17.07;;;11.80;;
15406;SDS011;7802;51.568;6.364;2022-11-20T07:28:02;17.37;;;12.50;;
15406;SDS011;7802;51.568;6.364;2022-11-20T07:30:50;17.23;;;12.77;;
15406;SDS011;7802;51.568;6.364;2022-11-20T07:33:37;17.47;;;13.17;;
15406;SDS011;7802;51.568;6.364;2022-11-20T07:36:24;14.60;;;12.17;;
15406;SDS011;7802;51.568;6.364;2022-11-20T07:39:11;15.73;;;12.33;;
15406;SDS011;7802;51.568;6.364;2022-11-20T07:41:58;14.83;;;12.07;;
15406;SDS011;7802;51.568;6.364;2022-11-20T07:44:45;19.20;;;12.17;;
15406;SDS011;7802;51.568;6.364;2022-11-20T07:47:34;15.10;;;12.33;;
15406;SDS011;7802;51.568;6.364;2022-11-20T07:50:21;19.43;;;12.80;;
15406;SDS011;7802;51.568;6.364;2022-11-20T07:53:08;17.57;;;11.83;;
15406;SDS011;7802;51.568;6.364;2022-11-20T07:55:58;16.00;;;12.13;;
15406;SDS011;7802;51.568;6.364;2022-11-20T07:58:46;14.57;;;11.40;;
15406;SDS011;7802;51.568;6.364;2022-11-20T08:01:33;15.67;;;12.40;;
15406;SDS011;7802;51.568;6.364;2022-11-20T08:04:20;16.97;;;12.40;;
15406;SDS011;7802;51.568;6.364;2022-11-20T08:07:07;17.63;;;12.80;;
15406;SDS011;7802;51.568;6.364;2022-11-20T08:09:54;16.53;;;12.43;;
15406;SDS011;7802;51.568;6.364;2022-11-20T08:12:44;17.90;;;13.67;;
15406;SDS011;7802;51.568;6.364;2022-11-20T08:15:50;18.10;;;13.53;;
15406;SDS011;7802;51.568;6.364;2022-11-20T08:18:38;20.13;;;14.50;;
15406;SDS011;7802;51.568;6.364;2022-11-20T08:21:25;19.70;;;14.67;;
15406;SDS011;7802;51.568;6.364;2022-11-20T08:24:12;18.80;;;14.00;;
15406;SDS011;7802;51.568;6.364;2022-11-20T08:26:59;18.37;;;14.37;;
15406;SDS011;7802;51.568;6.364;2022-11-20T08:29:46;18.83;;;14.97;;
15406;SDS011;7802;51.568;6.364;2022-11-20T08:32:32;17.73;;;14.73;;
15406;SDS011;7802;51.568;6.364;2022-11-20T08:35:21;17.60;;;13.93;;
15406;SDS011;7802;51.568;6.364;2022-11-20T08:38:08;18.53;;;14.43;;
15406;SDS011;7802;51.568;6.364;2022-11-20T08:40:56;18.03;;;14.87;;
15406;SDS011;7802;51.568;6.364;2022-11-20T08:44:02;20.63;;;15.20;;
15406;SDS011;7802;51.568;6.364;2022-11-20T08:46:50;22.37;;;15.47;;
15406;SDS011;7802;51.568;6.364;2022-11-20T08:49:37;17.83;;;14.97;;
15406;SDS011;7802;51.568;6.364;2022-11-20T08:52:25;18.57;;;14.60;;
15406;SDS011;7802;51.568;6.364;2022-11-20T08:55:12;18.63;;;15.00;;
15406;SDS011;7802;51.568;6.364;2022-11-20T08:58:02;17.37;;;13.90;;
15406;SDS011;7802;51.568;6.364;2022-11-20T09:00:49;19.10;;;14.33;;
15406;SDS011;7802;51.568;6.364;2022-11-20T09:03:36;18.37;;;13.47;;
15406;SDS011;7802;51.568;6.364;2022-11-20T09:06:23;18.40;;;14.17;;
15406;SDS011;7802;51.568;6.364;2022-11-20T09:09:11;19.60;;;14.73;;
15406;SDS011;7802;51.568;6.364;2022-11-20T09:11:58;16.77;;;13.13;;
15406;SDS011;7802;51.568;6.364;2022-11-20T09:14:45;18.27;;;13.30;;
15406;SDS011;7802;51.568;6.364;2022-11-20T09:17:37;18.37;;;14.33;;
15406;SDS011;7802;51.568;6.364;2022-11-20T09:20:25;20.37;;;14.30;;
15406;SDS011;7802;51.568;6.364;2022-11-20T09:23:14;18.50;;;14.77;;
15406;SDS011;7802;51.568;6.364;2022-11-20T09:26:04;20.60;;;15.07;;
15406;SDS011;7802;51.568;6.364;2022-11-20T09:28:51;17.90;;;14.03;;
15406;SDS011;7802;51.568;6.364;2022-11-20T09:31:43;18.60;;;14.17;;
15406;SDS011;7802;51.568;6.364;2022-11-20T09:34:30;19.80;;;14.40;;
15406;SDS011;7802;51.568;6.364;2022-11-20T09:37:17;17.87;;;14.67;;
15406;SDS011;7802;51.568;6.364;2022-11-20T09:40:05;18.77;;;14.27;;
15406;SDS011;7802;51.568;6.364;2022-11-20T09:42:55;18.87;;;14.00;;
15406;SDS011;7802;51.568;6.364;2022-11-20T09:45:50;17.50;;;14.10;;
15406;SDS011;7802;51.568;6.364;2022-11-20T09:48:51;19.97;;;15.60;;
15406;SDS011;7802;51.568;6.364;2022-11-20T09:51:53;19.70;;;14.60;;
15406;SDS011;7802;51.568;6.364;2022-11-20T09:58:00;17.57;;;14.10;;
15406;SDS011;7802;51.568;6.364;2022-11-20T10:04:29;15.47;;;12.90;;
15406;SDS011;7802;51.568;6.364;2022-11-20T10:11:18;16.27;;;13.80;;
15406;SDS011;7802;51.568;6.364;2022-11-20T10:17:33;17.73;;;13.33;;
15406;SDS011;7802;51.568;6.364;2022-11-20T10:26:21;19.00;;;14.27;;
15406;SDS011;7802;51.568;6.364;2022-11-20T10:32:27;17.20;;;13.67;;
15406;SDS011;7802;51.568;6.364;2022-11-20T10:36:51;17.23;;;13.20;;
15406;SDS011;7802;51.568;6.364;2022-11-20T10:39:42;18.53;;;13.67;;
15406;SDS011;7802;51.568;6.364;2022-11-20T10:42:37;16.57;;;13.70;;
15406;SDS011;7802;51.568;6.364;2022-11-20T10:45:35;16.77;;;13.40;;
15406;SDS011;7802;51.568;6.364;2022-11-20T10:48:29;17.40;;;13.30;;
15406;SDS011;7802;51.568;6.364;2022-11-20T10:51:21;16.97;;;13.83;;
15406;SDS011;7802;51.568;6.364;2022-11-20T10:54:19;17.63;;;13.60;;
15406;SDS011;7802;51.568;6.364;2022-11-20T10:57:17;15.97;;;13.20;;
15406;SDS011;7802;51.568;6.364;2022-11-20T11:00:11;15.67;;;13.10;;
15406;SDS011;7802;51.568;6.364;2022-11-20T11:03:00;17.87;;;14.20;;
15406;SDS011;7802;51.568;6.364;2022-11-20T11:05:49;16.33;;;13.73;;
15406;SDS011;7802;51.568;6.364;2022-11-20T11:08:40;15.60;;;13.67;;
15406;SDS011;7802;51.568;6.364;2022-11-20T11:11:30;16.60;;;13.67;;
15406;SDS011;7802;51.568;6.364;2022-11-20T11:14:19;16.00;;;13.67;;
15406;SDS011;7802;51.568;6.364;2022-11-20T11:17:18;17.60;;;13.73;;
15406;SDS011;7802;51.568;6.364;2022-11-20T11:20:15;17.87;;;14.57;;
15406;SDS011;7802;51.568;6.364;2022-11-20T11:23:03;17.07;;;13.73;;
15406;SDS011;7802;51.568;6.364;2022-11-20T11:25:57;21.60;;;14.77;;
15406;SDS011;7802;51.568;6.364;2022-11-20T11:28:52;18.80;;;14.87;;
15406;SDS011;7802;51.568;6.364;2022-11-20T11:31:40;18.90;;;15.23;;
15406;SDS011;7802;51.568;6.364;2022-11-20T11:34:27;21.40;;;16.47;;
15406;SDS011;7802;51.568;6.364;2022-11-20T11:37:17;19.93;;;14.87;;
15406;SDS011;7802;51.568;6.364;2022-11-20T11:40:08;20.33;;;16.47;;
15406;SDS011;7802;51.568;6.364;2022-11-20T11:43:32;21.67;;;16.20;;
15406;SDS011;7802;51.568;6.364;2022-11-20T11:46:35;24.70;;;17.33;;
15406;SDS011;7802;51.568;6.364;2022-11-20T11:49:23;24.97;;;18.10;;
15406;SDS011;7802;51.568;6.364;2022-11-20T11:52:12;25.70;;;17.57;;
15406;SDS011;7802;51.568;6.364;2022-11-20T11:55:03;23.80;;;17.03;;
15406;SDS011;7802;51.568;6.364;2022-11-20T11:57:59;28.47;;;18.90;;
15406;SDS011;7802;51.568;6.364;2022-11-20T12:00:56;26.97;;;18.20;;
15406;SDS011;7802;51.568;6.364;2022-11-20T12:03:51;30.50;;;19.73;;
15406;SDS011;7802;51.568;6.364;2022-11-20T12:07:10;33.63;;;19.90;;
15406;SDS011;7802;51.568;6.364;2022-11-20T12:10:23;30.03;;;19.63;;
15406;SDS011;7802;51.568;6.364;2022-11-20T12:13:26;29.20;;;19.17;;
15406;SDS011;7802;51.568;6.364;2022-11-20T12:16:22;32.80;;;20.33;;
15406;SDS011;7802;51.568;6.364;2022-11-20T12:22:25;37.20;;;20.77;;
15406;SDS011;7802;51.568;6.364;2022-11-20T12:25:19;38.83;;;20.87;;
15406;SDS011;7802;51.568;6.364;2022-11-20T12:28:18;32.87;;;20.50;;
15406;SDS011;7802;51.568;6.364;2022-11-20T12:31:22;35.33;;;21.10;;
15406;SDS011;7802;51.568;6.364;2022-11-20T12:34:32;36.63;;;19.80;;
15406;SDS011;7802;51.568;6.364;2022-11-20T12:37:42;33.53;;;19.57;;
15406;SDS011;7802;51.568;6.364;2022-11-20T12:40:35;29.13;;;18.53;;
15406;SDS011;7802;51.568;6.364;2022-11-20T12:43:30;31.07;;;19.13;;
15406;SDS011;7802;51.568;6.364;2022-11-20T12:46:40;32.63;;;20.50;;
15406;SDS011;7802;51.568;6.364;2022-11-20T12:49:32;30.97;;;20.00;;
15406;SDS011;7802;51.568;6.364;2022-11-20T12:52:27;36.03;;;20.00;;
15406;SDS011;7802;51.568;6.364;2022-11-20T12:55:28;35.07;;;20.87;;
15406;SDS011;7802;51.568;6.364;2022-11-20T12:58:24;32.70;;;19.77;;
15406;SDS011;7802;51.568;6.364;2022-11-20T13:01:23;31.60;;;19.00;;
15406;SDS011;7802;51.568;6.364;2022-11-20T13:04:34;30.80;;;19.80;;
15406;SDS011;7802;51.568;6.364;2022-11-20T13:07:33;30.33;;;19.23;;
15406;SDS011;7802;51.568;6.364;2022-11-20T13:10:24;28.40;;;18.07;;
15406;SDS011;7802;51.568;6.364;2022-11-20T13:13:18;30.40;;;18.77;;
